Riverton, Washington
Current Conditions -  °F | °C
As of 3:53 AM on Friday 31 Oct 2014 (Local Time) from KSEA Reporting Station
Overcast Overcast  
Wind Chill: 51°   Ceiling: 3900
Heat Index: 51°   Visibility: 7mi
Dew Point: 49°   Wind: 3mph
Humidity: 92%   Direction: 250°WSW
Pressure: 29.74"   Gusts: NA
Location:  47.4488°N, 122.28°W
Report Text: KSEA 311053Z 25003KT 7SM FEW006 OVC039 11/09 A2974 RMK AO2 RAE47 SLP077 P0004 T01060094
Loading
Personal Weather Stations






























Interactive Weather Map
Tropical Storm Tracking
New forecast layout! Learn more

10-Day Weather Forecast

Advertisements
Track Severe Weather on mobile